Tsuruoka, Japan
Current Conditions -  °F | °C
As of 9:00 PM on Sunday 25 Jan 2015 (Local Time) from RJSY Reporting Station
Broken Clouds Broken Clouds  
Wind Chill: 26°   Ceiling: Unl
Heat Index: 32°   Visibility: 6mi
Dew Point: 28°   Wind: 7mph
Humidity: 87%   Direction: 80°E
Pressure: 30.33"   Gusts: NA
Location:  38.73°N, 139.82°E
Report Text: RJSY 251200Z 08006KT 9999 FEW050 SCT180 BKN/// 00/M02 Q1027
Loading
Personal Weather Stations






























Interactive Weather Map New forecast layout! Learn more

10-Day Weather Forecast

Advertisements
Track Severe Weather on mobile